Time;durP1;ratioP1;P1;durP2;ratioP2;P2;SDS_P1;SDS_P2;PMS_P1;PMS_P2;Temp;Humidity;BMP_temperature;BMP_pressure;BME280_temperature;BME280_humidity;BME280_pressure;Samples;Min_cycle;Max_cycle;Signal;HPM_P1;HPM_P2
2022/05/30 00:00:20;;;;;;;0.10;0.10;;;8.30;99.90;;;;;;5057651;28;20472;-85
2022/05/30 00:02:49;;;;;;;0.10;0.10;;;8.30;99.90;;;;;;5089750;28;20461;-82
2022/05/30 00:05:18;;;;;;;0.10;0.10;;;8.50;99.90;;;;;;5103686;28;20405;-84
2022/05/30 00:07:45;;;;;;;0.10;0.10;;;8.10;99.90;;;;;;5073871;28;20036;-82
2022/05/30 00:10:13;;;;;;;0.10;0.10;;;8.10;99.90;;;;;;5070273;28;20093;-82
2022/05/30 00:12:40;;;;;;;0.10;0.10;;;8.10;99.90;;;;;;5056922;28;20067;-82
2022/05/30 00:15:09;;;;;;;0.10;0.10;;;8.00;99.90;;;;;;5061989;28;20037;-82
2022/05/30 00:17:37;;;;;;;0.10;0.10;;;8.00;99.90;;;;;;5089731;28;20040;-84
2022/05/30 00:20:05;;;;;;;0.20;0.10;;;7.90;99.90;;;;;;5041359;28;20178;-82
2022/05/30 00:22:32;;;;;;;0.10;0.10;;;7.80;99.90;;;;;;5065148;28;20041;-85
2022/05/30 00:24:58;;;;;;;0.10;0.10;;;7.80;99.90;;;;;;5072838;28;20409;-85
2022/05/30 00:27:25;;;;;;;0.10;0.10;;;7.80;99.90;;;;;;5057339;28;20036;-85
2022/05/30 00:29:52;;;;;;;0.10;0.10;;;7.80;99.90;;;;;;5072973;28;20043;-85
2022/05/30 00:32:20;;;;;;;0.10;0.10;;;7.70;99.90;;;;;;5089898;28;20044;-82
2022/05/30 00:34:46;;;;;;;0.10;0.10;;;7.60;99.90;;;;;;5058211;28;20037;-82
2022/05/30 00:37:13;;;;;;;0.10;0.10;;;7.60;99.90;;;;;;5069589;28;20098;-82
2022/05/30 00:39:40;;;;;;;0.10;0.10;;;7.60;99.90;;;;;;5070753;28;20045;-82
2022/05/30 00:42:15;;;;;;;0.10;0.10;;;7.50;99.90;;;;;;5073110;28;20037;-82
2022/05/30 00:44:44;;;;;;;0.10;0.10;;;7.50;99.90;;;;;;5086259;28;20044;-85
2022/05/30 00:47:12;;;;;;;0.10;0.10;;;7.40;99.90;;;;;;5056918;28;20039;-82
2022/05/30 00:49:42;;;;;;;0.10;0.10;;;7.40;99.90;;;;;;5053183;28;20040;-82
2022/05/30 00:52:15;;;;;;;0.10;0.10;;;7.40;99.90;;;;;;5087610;28;20044;-85
2022/05/30 00:54:54;;;;;;;0.10;0.10;;;7.40;99.90;;;;;;5104106;28;20040;-85
2022/05/30 00:57:22;;;;;;;0.17;0.17;;;7.40;99.90;;;;;;5082127;28;20044;-82
2022/05/30 01:00:04;;;;;;;0.10;0.10;;;7.40;99.90;;;;;;5088578;28;20473;-85
2022/05/30 01:02:33;;;;;;;0.10;0.10;;;7.40;99.90;;;;;;5081923;28;20029;-85
2022/05/30 01:07:47;;;;;;;0.10;0.10;;;7.30;99.90;;;;;;5066170;28;20040;-84
2022/05/30 01:10:18;;;;;;;0.10;0.10;;;7.30;99.90;;;;;;5072821;28;20482;-85
2022/05/30 01:12:52;;;;;;;0.10;0.10;;;7.30;99.90;;;;;;5089315;28;20047;-82
2022/05/30 01:15:22;;;;;;;0.32;0.10;;;7.30;99.90;;;;;;5089387;28;20501;-82
2022/05/30 01:18:04;;;;;;;0.15;0.15;;;7.40;99.90;;;;;;5072783;28;20078;-85
2022/05/30 01:20:39;;;;;;;0.10;0.10;;;7.40;99.90;;;;;;5090356;28;20044;-85
2022/05/30 01:23:22;;;;;;;0.10;0.10;;;7.40;99.90;;;;;;5088571;28;20040;-85
2022/05/30 01:26:12;;;;;;;0.00;0.00;;;7.50;99.90;;;;;;5092047;28;20043;-85
2022/05/30 01:29:00;;;;;;;0.20;0.20;;;7.40;99.90;;;;;;5088960;28;20128;-82
2022/05/30 01:31:27;;;;;;;0.10;0.10;;;7.40;99.90;;;;;;5069184;28;20041;-83
2022/05/30 01:33:54;;;;;;;0.10;0.10;;;7.50;99.90;;;;;;5066060;28;20032;-82
2022/05/30 01:36:26;;;;;;;0.10;0.10;;;7.50;99.90;;;;;;5056072;28;20097;-85
2022/05/30 01:38:53;;;;;;;0.10;0.10;;;7.50;99.90;;;;;;5088531;28;20072;-82
2022/05/30 01:41:19;;;;;;;0.20;0.20;;;7.50;99.90;;;;;;5052787;28;20068;-85
2022/05/30 01:43:46;;;;;;;0.10;0.10;;;7.50;99.90;;;;;;5045352;28;20493;-82
2022/05/30 01:46:17;;;;;;;0.10;0.10;;;7.60;99.90;;;;;;5080830;28;20383;-85
2022/05/30 01:48:45;;;;;;;0.10;0.10;;;7.80;99.90;;;;;;5072357;28;20128;-82
2022/05/30 01:51:14;;;;;;;0.22;0.17;;;7.60;99.90;;;;;;5089167;28;20053;-85
2022/05/30 01:53:41;;;;;;;0.10;0.10;;;7.70;99.90;;;;;;5088717;28;20099;-82
2022/05/30 01:56:08;;;;;;;0.17;0.17;;;7.70;99.90;;;;;;5088884;28;20048;-85
2022/05/30 01:58:35;;;;;;;0.10;0.10;;;7.70;99.90;;;;;;5072344;28;20492;-85
2022/05/30 02:01:19;;;;;;;0.10;0.10;;;7.70;99.90;;;;;;5072385;28;20040;-83
2022/05/30 02:03:47;;;;;;;0.10;0.10;;;7.70;99.90;;;;;;5069445;28;20128;-85
2022/05/30 02:06:14;;;;;;;0.10;0.10;;;8.00;99.90;;;;;;5087649;28;20111;-84
2022/05/30 02:08:41;;;;;;;0.10;0.10;;;7.80;99.90;;;;;;5056068;28;20509;-82
2022/05/30 02:11:10;;;;;;;0.10;0.10;;;8.10;99.90;;;;;;5090074;28;20432;-84
2022/05/30 02:13:38;;;;;;;0.10;0.10;;;7.80;99.90;;;;;;5092926;28;20048;-84
2022/05/30 02:18:55;;;;;;;0.10;0.10;;;7.70;99.90;;;;;;5108617;28;20580;-85
2022/05/30 02:21:22;;;;;;;0.10;0.10;;;7.70;99.90;;;;;;5059907;28;20044;-85
2022/05/30 02:23:48;;;;;;;0.10;0.10;;;7.70;99.90;;;;;;5075840;28;20033;-82
2022/05/30 02:26:15;;;;;;;0.10;0.10;;;7.60;99.90;;;;;;5064534;28;20041;-82
2022/05/30 02:28:42;;;;;;;0.10;0.10;;;7.70;99.90;;;;;;5071954;28;20469;-82
2022/05/30 02:31:09;;;;;;;0.20;0.20;;;7.70;99.90;;;;;;5055210;28;20045;-82
2022/05/30 02:36:39;;;;;;;0.10;0.10;;;7.70;99.90;;;;;;5092042;28;20048;-85
2022/05/30 02:39:11;;;;;;;0.10;0.10;;;7.60;99.90;;;;;;5077439;28;20452;-82
2022/05/30 02:41:38;;;;;;;0.10;0.10;;;7.60;99.90;;;;;;5081650;28;20127;-85
2022/05/30 02:44:04;;;;;;;0.10;0.10;;;7.60;99.90;;;;;;5072558;28;20106;-85
2022/05/30 02:46:31;;;;;;;0.10;0.10;;;7.50;99.90;;;;;;5059066;28;20067;-85
2022/05/30 02:48:58;;;;;;;0.10;0.10;;;7.50;99.90;;;;;;5091855;28;20106;-82
2022/05/30 02:51:25;;;;;;;0.10;0.10;;;7.70;99.90;;;;;;5059152;28;20036;-84
2022/05/30 02:53:53;;;;;;;0.22;0.22;;;7.50;99.90;;;;;;5091712;28;20048;-82
2022/05/30 02:56:19;;;;;;;0.10;0.10;;;7.60;99.90;;;;;;5075078;28;20064;-82
2022/05/30 02:58:47;;;;;;;0.10;0.10;;;7.40;99.90;;;;;;5091683;28;20087;-82
2022/05/30 03:01:14;;;;;;;0.10;0.10;;;7.40;99.90;;;;;;5108403;28;20032;-84
2022/05/30 03:03:41;;;;;;;0.20;0.20;;;7.40;99.90;;;;;;5092123;28;20085;-85
2022/05/30 03:06:08;;;;;;;0.10;0.10;;;7.40;99.90;;;;;;5091136;28;20143;-82
2022/05/30 03:08:35;;;;;;;0.10;0.10;;;7.30;99.90;;;;;;5085325;28;20413;-82
2022/05/30 03:11:02;;;;;;;0.10;0.10;;;7.90;99.90;;;;;;5057776;28;20040;-82
2022/05/30 03:13:29;;;;;;;0.10;0.10;;;7.70;99.90;;;;;;5057963;28;20175;-85
2022/05/30 03:15:58;;;;;;;0.10;0.10;;;7.30;99.90;;;;;;5090738;28;20044;-85
2022/05/30 03:18:25;;;;;;;0.10;0.10;;;7.30;99.90;;;;;;5091640;28;20036;-85
2022/05/30 03:20:52;;;;;;;0.10;0.10;;;7.40;99.90;;;;;;5055590;28;20112;-85
2022/05/30 03:23:19;;;;;;;0.05;0.05;;;7.30;99.90;;;;;;5057034;28;20106;-85
2022/05/30 03:25:45;;;;;;;0.10;0.10;;;7.30;99.90;;;;;;5090057;28;20418;-85
2022/05/30 03:28:12;;;;;;;0.10;0.10;;;7.30;99.90;;;;;;5090447;28;20040;-82
2022/05/30 03:30:39;;;;;;;0.10;0.10;;;7.30;99.90;;;;;;5057842;28;20137;-82
2022/05/30 03:33:08;;;;;;;0.10;0.10;;;7.60;99.90;;;;;;5058073;28;20048;-82
2022/05/30 03:35:36;;;;;;;0.10;0.10;;;7.40;99.90;;;;;;5058993;28;20115;-82
2022/05/30 03:38:04;;;;;;;0.10;0.10;;;7.40;99.90;;;;;;5070657;28;20049;-82
2022/05/30 03:40:31;;;;;;;0.10;0.10;;;7.40;99.90;;;;;;5085284;28;20527;-82
2022/05/30 03:42:58;;;;;;;0.10;0.10;;;7.40;99.90;;;;;;5057964;28;20041;-82
2022/05/30 03:45:25;;;;;;;0.20;0.20;;;7.40;99.90;;;;;;5047020;28;20067;-82
2022/05/30 03:47:51;;;;;;;0.10;0.10;;;7.70;99.90;;;;;;5070168;28;20032;-83
2022/05/30 03:50:23;;;;;;;0.10;0.10;;;7.40;99.90;;;;;;5047982;28;20040;-85
2022/05/30 03:52:51;;;;;;;0.08;0.08;;;7.40;99.90;;;;;;5107214;28;20048;-83
2022/05/30 03:55:20;;;;;;;0.35;0.35;;;7.40;99.90;;;;;;5080581;28;20093;-85
2022/05/30 03:57:47;;;;;;;0.10;0.10;;;7.40;99.90;;;;;;5073757;28;20456;-82
2022/05/30 04:00:19;;;;;;;0.10;0.10;;;7.40;99.90;;;;;;5057045;28;20135;-84
2022/05/30 04:02:49;;;;;;;0.10;0.10;;;7.50;99.90;;;;;;5090484;28;20119;-82
2022/05/30 04:05:18;;;;;;;0.10;0.10;;;7.50;99.90;;;;;;5106909;28;20063;-82
2022/05/30 04:07:45;;;;;;;0.10;0.10;;;7.70;99.90;;;;;;5073580;28;20040;-82
2022/05/30 04:10:14;;;;;;;0.20;0.20;;;7.50;99.90;;;;;;5064950;28;20045;-85
2022/05/30 04:12:42;;;;;;;0.10;0.10;;;7.50;99.90;;;;;;5100776;28;20162;-85
2022/05/30 04:15:27;;;;;;;0.10;0.10;;;7.50;99.90;;;;;;5056791;28;20045;-82
2022/05/30 04:17:54;;;;;;;0.10;0.10;;;7.50;99.90;;;;;;5089997;28;20131;-83
2022/05/30 04:20:21;;;;;;;0.05;0.05;;;7.60;99.90;;;;;;5106465;28;20150;-85
2022/05/30 04:22:47;;;;;;;0.20;0.20;;;7.50;99.90;;;;;;5050397;28;20519;-84
2022/05/30 04:25:14;;;;;;;0.10;0.10;;;7.50;99.90;;;;;;5082471;28;20074;-82
2022/05/30 04:27:41;;;;;;;0.10;0.10;;;7.50;99.90;;;;;;5076916;28;20413;-85
2022/05/30 04:30:09;;;;;;;0.10;0.10;;;7.90;99.90;;;;;;5053277;28;20350;-82
2022/05/30 04:32:36;;;;;;;0.52;0.20;;;7.50;99.90;;;;;;5056656;28;20412;-85
2022/05/30 04:35:07;;;;;;;0.10;0.10;;;7.60;99.90;;;;;;5086672;28;20035;-82
2022/05/30 04:37:34;;;;;;;0.10;0.10;;;7.60;99.90;;;;;;5070277;28;20561;-85
2022/05/30 04:40:02;;;;;;;0.10;0.10;;;7.60;99.90;;;;;;5067904;28;20128;-82
2022/05/30 04:42:29;;;;;;;0.10;0.10;;;7.70;99.90;;;;;;5056294;28;20153;-82
2022/05/30 04:44:55;;;;;;;0.10;0.10;;;7.70;99.90;;;;;;5044198;28;20084;-82
2022/05/30 04:47:22;;;;;;;0.10;0.10;;;7.70;99.90;;;;;;5036391;28;20505;-82
2022/05/30 04:49:50;;;;;;;0.10;0.10;;;7.70;99.90;;;;;;5036747;28;20056;-85
2022/05/30 04:52:17;;;;;;;0.10;0.10;;;7.80;99.90;;;;;;5036625;28;20052;-85
2022/05/30 04:54:43;;;;;;;0.10;0.10;;;7.80;99.90;;;;;;5064695;28;20127;-82
2022/05/30 04:57:11;;;;;;;0.00;0.00;;;7.80;99.90;;;;;;5059672;28;20090;-82
2022/05/30 04:59:41;;;;;;;0.10;0.10;;;7.80;99.90;;;;;;5073118;28;20409;-82
2022/05/30 05:02:09;;;;;;;0.10;0.10;;;7.80;99.90;;;;;;5048241;28;20572;-82
2022/05/30 05:04:39;;;;;;;0.10;0.10;;;7.90;99.90;;;;;;5089091;28;20487;-84
2022/05/30 05:07:06;;;;;;;0.20;0.20;;;7.90;99.90;;;;;;5081405;28;20035;-82
2022/05/30 05:09:46;;;;;;;0.08;0.08;;;7.90;99.90;;;;;;5056156;28;20044;-84
2022/05/30 05:12:13;;;;;;;0.20;0.20;;;8.00;99.90;;;;;;5072760;28;20136;-82
2022/05/30 05:14:40;;;;;;;0.10;0.10;;;7.90;99.90;;;;;;5072956;28;20080;-85
2022/05/30 05:17:07;;;;;;;0.10;0.10;;;8.00;99.90;;;;;;5089328;28;20393;-82
2022/05/30 05:19:36;;;;;;;0.10;0.10;;;8.10;99.90;;;;;;5055853;28;20083;-84
2022/05/30 05:22:03;;;;;;;0.10;0.10;;;8.10;99.90;;;;;;5072782;28;20055;-82
2022/05/30 05:24:30;;;;;;;0.10;0.10;;;8.10;99.90;;;;;;5089198;28;20039;-85
2022/05/30 05:26:56;;;;;;;0.30;0.30;;;8.20;99.90;;;;;;5066632;28;20456;-85
2022/05/30 05:29:23;;;;;;;0.10;0.10;;;8.30;99.90;;;;;;5056056;28;20452;-85
2022/05/30 05:31:51;;;;;;;0.10;0.10;;;8.30;99.90;;;;;;5055909;28;20056;-82
2022/05/30 05:34:18;;;;;;;0.10;0.10;;;8.40;99.90;;;;;;5067335;28;20045;-82
2022/05/30 05:36:47;;;;;;;0.10;0.10;;;8.40;99.90;;;;;;5089134;28;20044;-85
2022/05/30 05:39:16;;;;;;;0.10;0.10;;;8.50;99.90;;;;;;5088956;28;20044;-82
2022/05/30 05:41:46;;;;;;;0.10;0.10;;;8.60;99.90;;;;;;5105760;28;20040;-85
2022/05/30 05:44:15;;;;;;;0.10;0.10;;;8.50;99.90;;;;;;5089315;28;20037;-82
2022/05/30 05:46:42;;;;;;;0.10;0.10;;;8.60;99.90;;;;;;5060009;28;20040;-82
2022/05/30 05:49:10;;;;;;;0.10;0.10;;;8.60;99.90;;;;;;5055935;28;20048;-82
2022/05/30 05:51:38;;;;;;;0.10;0.10;;;8.60;99.90;;;;;;5072316;28;20036;-82
2022/05/30 05:54:05;;;;;;;0.10;0.10;;;8.70;99.90;;;;;;5056257;28;20048;-81
2022/05/30 05:56:32;;;;;;;0.17;0.17;;;8.70;99.90;;;;;;5072444;28;20071;-84
2022/05/30 05:58:59;;;;;;;0.17;0.17;;;8.70;99.90;;;;;;5072398;28;20037;-85
2022/05/30 06:01:29;;;;;;;0.10;0.10;;;8.80;99.90;;;;;;5055990;28;20044;-81
2022/05/30 06:03:58;;;;;;;0.10;0.10;;;8.90;99.90;;;;;;5075621;28;20036;-82
2022/05/30 06:06:26;;;;;;;0.10;0.10;;;9.10;99.90;;;;;;5055708;28;20110;-85
2022/05/30 06:08:56;;;;;;;0.10;0.10;;;9.00;99.90;;;;;;5039520;28;20091;-84
2022/05/30 06:11:24;;;;;;;0.10;0.10;;;9.10;99.90;;;;;;5071800;28;20077;-83
2022/05/30 06:13:51;;;;;;;0.43;0.17;;;9.10;99.90;;;;;;5055914;28;20052;-84
2022/05/30 06:16:27;;;;;;;0.10;0.10;;;9.40;99.90;;;;;;5039389;28;20087;-84
2022/05/30 06:18:56;;;;;;;0.10;0.10;;;9.20;99.90;;;;;;5060602;28;20033;-84
2022/05/30 06:21:25;;;;;;;0.00;0.00;;;9.30;99.90;;;;;;5092188;28;20037;-81
2022/05/30 06:23:53;;;;;;;0.17;0.17;;;9.40;99.90;;;;;;5067949;28;20074;-81
2022/05/30 06:26:20;;;;;;;0.10;0.10;;;9.50;99.90;;;;;;5075266;28;20747;-84
2022/05/30 06:28:47;;;;;;;0.10;0.10;;;9.60;99.90;;;;;;5056131;28;20072;-84
2022/05/30 06:31:25;;;;;;;0.00;0.00;;;9.70;99.90;;;;;;5075590;28;20076;-84
2022/05/30 06:33:55;;;;;;;1.38;0.45;;;9.80;99.90;;;;;;5075931;28;20033;-84
2022/05/30 06:36:24;;;;;;;0.00;0.00;;;9.90;99.90;;;;;;5089459;28;20044;-84
2022/05/30 06:38:52;;;;;;;0.10;0.10;;;10.00;99.90;;;;;;5065317;28;20048;-84
2022/05/30 06:41:24;;;;;;;0.00;0.00;;;10.10;99.90;;;;;;5073857;28;20059;-82
2022/05/30 06:43:57;;;;;;;0.00;0.00;;;10.10;99.90;;;;;;5076011;28;20111;-82
2022/05/30 06:46:24;;;;;;;0.10;0.10;;;10.20;99.90;;;;;;5079844;28;20036;-81
2022/05/30 06:48:54;;;;;;;0.10;0.10;;;10.30;99.90;;;;;;5080813;28;20076;-82
2022/05/30 06:51:24;;;;;;;0.00;0.00;;;10.50;99.90;;;;;;5058340;28;20174;-82
2022/05/30 06:53:51;;;;;;;0.10;0.10;;;10.60;99.90;;;;;;5073677;28;20056;-83
2022/05/30 06:56:21;;;;;;;0.10;0.10;;;10.70;99.90;;;;;;5087108;28;20784;-84
2022/05/30 06:58:50;;;;;;;0.00;0.00;;;10.80;99.90;;;;;;5065926;28;20052;-82
2022/05/30 07:01:19;;;;;;;0.10;0.10;;;10.80;99.90;;;;;;5080274;28;20043;-84
2022/05/30 07:03:46;;;;;;;0.00;0.00;;;10.80;99.90;;;;;;5091309;28;20044;-81
2022/05/30 07:06:16;;;;;;;0.10;0.10;;;10.80;99.90;;;;;;5058648;28;20401;-85
2022/05/30 07:08:46;;;;;;;0.10;0.10;;;10.80;99.90;;;;;;5056686;28;20041;-82
2022/05/30 07:11:14;;;;;;;0.10;0.10;;;10.90;99.90;;;;;;5060322;28;20049;-85
2022/05/30 07:13:41;;;;;;;0.10;0.10;;;10.90;99.90;;;;;;5088386;28;20106;-85
2022/05/30 07:16:11;;;;;;;0.10;0.10;;;11.00;99.90;;;;;;5076736;28;20474;-84
2022/05/30 07:18:43;;;;;;;0.13;0.13;;;11.20;99.90;;;;;;5086114;28;20037;-85
2022/05/30 07:21:13;;;;;;;0.10;0.10;;;11.20;99.90;;;;;;5075453;28;20086;-85
2022/05/30 07:23:41;;;;;;;0.10;0.10;;;11.30;99.90;;;;;;5090691;28;20039;-82
2022/05/30 07:26:13;;;;;;;0.03;0.03;;;11.40;99.90;;;;;;5061447;28;20068;-85
2022/05/30 07:28:40;;;;;;;0.10;0.10;;;11.40;99.90;;;;;;5072828;28;20052;-84
2022/05/30 07:31:09;;;;;;;0.10;0.10;;;11.60;99.90;;;;;;5057604;28;20401;-84
2022/05/30 07:33:38;;;;;;;0.10;0.10;;;11.60;99.90;;;;;;5073747;28;20048;-83
2022/05/30 07:36:14;;;;;;;0.00;0.00;;;11.60;99.90;;;;;;5073989;28;20043;-84
2022/05/30 07:38:41;;;;;;;0.08;0.08;;;11.60;99.90;;;;;;5073419;28;20119;-83
2022/05/30 07:41:08;;;;;;;0.10;0.10;;;11.70;99.90;;;;;;5090445;28;20040;-84
2022/05/30 07:43:36;;;;;;;0.20;0.10;;;11.70;99.90;;;;;;5056782;28;20038;-83
2022/05/30 07:46:06;;;;;;;0.10;0.10;;;11.60;99.90;;;;;;5057506;28;20028;-83
2022/05/30 07:48:33;;;;;;;0.00;0.00;;;11.60;99.90;;;;;;5073676;28;20036;-83
2022/05/30 07:51:01;;;;;;;0.00;0.00;;;11.50;99.90;;;;;;5073340;28;20048;-83
2022/05/30 07:53:28;;;;;;;0.00;0.00;;;11.30;99.90;;;;;;5084681;28;20045;-84
2022/05/30 07:55:55;;;;;;;0.08;0.08;;;11.20;99.90;;;;;;5064820;28;20049;-82
2022/05/30 07:58:22;;;;;;;0.10;0.10;;;11.10;99.90;;;;;;5076086;28;20045;-83
2022/05/30 08:00:51;;;;;;;0.00;0.00;;;11.20;99.90;;;;;;5056525;28;20048;-83
2022/05/30 08:03:19;;;;;;;0.10;0.10;;;11.20;99.90;;;;;;5077076;28;20626;-85
2022/05/30 08:05:47;;;;;;;0.00;0.00;;;11.20;99.90;;;;;;5052969;28;20033;-85
2022/05/30 08:08:17;;;;;;;0.10;0.10;;;11.30;99.90;;;;;;5047736;28;20501;-85
2022/05/30 08:10:43;;;;;;;0.03;0.03;;;11.40;99.90;;;;;;5056332;28;20047;-84
2022/05/30 08:13:10;;;;;;;0.00;0.00;;;11.40;99.90;;;;;;5056500;28;20044;-84
2022/05/30 08:15:37;;;;;;;0.08;0.08;;;11.50;99.90;;;;;;5053135;28;20043;-83
2022/05/30 08:18:04;;;;;;;0.00;0.00;;;11.60;99.90;;;;;;5053643;28;20533;-83
2022/05/30 08:20:32;;;;;;;0.00;0.00;;;11.70;99.90;;;;;;5044821;28;20040;-85
2022/05/30 08:22:59;;;;;;;0.10;0.10;;;11.90;99.90;;;;;;5060595;28;20063;-85
2022/05/30 08:25:26;;;;;;;0.10;0.10;;;12.10;99.90;;;;;;5068599;28;20702;-83
2022/05/30 08:27:52;;;;;;;0.00;0.00;;;12.20;99.90;;;;;;5083553;28;20037;-85
2022/05/30 08:30:20;;;;;;;0.00;0.00;;;12.00;99.90;;;;;;5073265;28;20051;-85
2022/05/30 08:32:47;;;;;;;0.00;0.00;;;12.00;99.90;;;;;;5088897;28;20486;-82
2022/05/30 08:35:17;;;;;;;0.00;0.00;;;12.20;99.90;;;;;;5058268;28;20596;-82
2022/05/30 08:37:45;;;;;;;0.00;0.00;;;12.40;99.90;;;;;;5072426;28;20043;-83
2022/05/30 08:43:37;;;;;;;0.10;0.10;;;12.50;99.90;;;;;;5089358;28;20033;-84
2022/05/30 08:46:43;;;;;;;0.10;0.10;;;12.70;99.90;;;;;;5072508;28;20048;-85
2022/05/30 08:49:22;;;;;;;0.00;0.00;;;12.70;99.90;;;;;;5040615;28;20051;-84
2022/05/30 08:52:21;;;;;;;0.00;0.00;;;12.90;99.90;;;;;;5071491;28;20522;-82
2022/05/30 08:54:47;;;;;;;0.00;0.00;;;13.10;99.90;;;;;;5072956;28;20410;-83
2022/05/30 08:57:39;;;;;;;0.00;0.00;;;13.10;99.90;;;;;;5072893;28;20045;-84
2022/05/30 09:00:20;;;;;;;0.00;0.00;;;13.20;99.90;;;;;;5080095;28;20040;-82
2022/05/30 09:02:56;;;;;;;0.00;0.00;;;13.10;99.90;;;;;;5105198;28;20045;-85
2022/05/30 09:05:28;;;;;;;0.00;0.00;;;13.00;99.90;;;;;;5088005;28;20075;-82
2022/05/30 09:08:00;;;;;;;0.00;0.00;;;13.30;99.90;;;;;;5061217;28;20041;-83
2022/05/30 09:10:45;;;;;;;0.00;0.00;;;13.30;99.90;;;;;;5091094;28;20119;-82
2022/05/30 09:13:23;;;;;;;0.10;0.10;;;13.20;99.90;;;;;;5089021;28;20106;-84
2022/05/30 09:16:08;;;;;;;0.10;0.10;;;13.20;99.90;;;;;;5088425;28;20040;-84
2022/05/30 09:19:06;;;;;;;0.00;0.00;;;13.00;99.90;;;;;;5085074;28;20040;-83
2022/05/30 09:21:34;;;;;;;0.10;0.10;;;13.00;99.90;;;;;;5063310;28;20045;-83
2022/05/30 09:24:02;;;;;;;0.08;0.08;;;13.10;99.90;;;;;;5060287;28;20047;-84
2022/05/30 09:26:36;;;;;;;0.00;0.00;;;13.10;99.90;;;;;;5076661;28;20040;-82
2022/05/30 09:29:10;;;;;;;0.00;0.00;;;13.10;99.90;;;;;;5076619;28;20032;-85
2022/05/30 09:31:49;;;;;;;0.00;0.00;;;13.10;99.90;;;;;;5076558;28;20493;-82
2022/05/30 09:34:45;;;;;;;0.10;0.10;;;12.90;99.90;;;;;;5092917;28;20093;-84
2022/05/30 09:37:29;;;;;;;0.00;0.00;;;12.90;99.90;;;;;;5095388;28;20051;-84
2022/05/30 09:39:57;;;;;;;0.00;0.00;;;12.90;99.90;;;;;;5083649;28;20425;-84
2022/05/30 09:42:34;;;;;;;0.22;0.10;;;12.70;99.90;;;;;;5043554;28;20063;-84
2022/05/30 09:45:14;;;;;;;0.10;0.10;;;12.70;99.90;;;;;;5076219;28;20032;-81
2022/05/30 09:48:18;;;;;;;0.05;0.05;;;12.80;99.90;;;;;;5080223;28;20037;-85
2022/05/30 09:50:51;;;;;;;0.00;0.00;;;12.70;99.90;;;;;;5092477;28;20498;-85
2022/05/30 09:53:42;;;;;;;0.00;0.00;;;12.60;99.90;;;;;;5092253;28;20036;-83
2022/05/30 09:56:13;;;;;;;0.00;0.00;;;12.60;99.90;;;;;;5109166;28;20041;-83
2022/05/30 09:58:58;;;;;;;0.17;0.17;;;12.40;99.90;;;;;;5090472;28;20036;-85
2022/05/30 10:01:26;;;;;;;0.00;0.00;;;12.40;99.90;;;;;;5084363;28;20040;-83
2022/05/30 10:03:57;;;;;;;0.00;0.00;;;12.40;99.90;;;;;;5075570;28;20042;-85
2022/05/30 10:06:26;;;;;;;0.00;0.00;;;12.30;99.90;;;;;;5041054;28;20043;-85
2022/05/30 10:09:14;;;;;;;0.17;0.10;;;12.30;99.90;;;;;;5064216;28;20041;-83
2022/05/30 10:11:42;;;;;;;0.00;0.00;;;12.30;99.90;;;;;;5092220;28;20576;-82
2022/05/30 10:14:34;;;;;;;0.00;0.00;;;12.30;99.90;;;;;;5092183;28;20044;-83
2022/05/30 10:17:19;;;;;;;0.00;0.00;;;12.50;99.90;;;;;;5082133;28;20049;-84
2022/05/30 10:19:51;;;;;;;0.00;0.00;;;12.80;99.90;;;;;;5091574;28;20049;-84
2022/05/30 10:28:46;;;;;;;0.03;0.03;;;13.30;99.90;;;;;;5108521;28;20128;-84
2022/05/30 10:31:32;;;;;;;0.10;0.10;;;13.10;99.90;;;;;;5080898;28;20036;-83
2022/05/30 10:34:37;;;;;;;0.10;0.10;;;13.10;99.90;;;;;;5087563;28;20044;-83
2022/05/30 10:37:42;;;;;;;0.05;0.05;;;12.90;99.90;;;;;;5081633;28;20097;-84
2022/05/30 10:40:21;;;;;;;0.00;0.00;;;12.90;99.90;;;;;;5082873;28;20068;-85
2022/05/30 10:43:11;;;;;;;0.00;0.00;;;12.80;99.90;;;;;;5055375;28;20044;-85
2022/05/30 10:45:37;;;;;;;0.03;0.03;;;12.80;99.90;;;;;;5055526;28;20036;-85
2022/05/30 10:48:09;;;;;;;0.00;0.00;;;12.70;99.90;;;;;;5077097;28;20879;-82
2022/05/30 10:50:53;;;;;;;0.00;0.00;;;12.60;99.90;;;;;;5075426;28;20044;-82
2022/05/30 10:53:45;;;;;;;0.00;0.00;;;12.60;99.90;;;;;;5072339;28;20044;-85
2022/05/30 10:56:23;;;;;;;0.00;0.00;;;12.60;99.90;;;;;;5103922;28;20048;-83
2022/05/30 10:58:59;;;;;;;0.05;0.05;;;12.70;99.90;;;;;;5091115;28;20562;-84
2022/05/30 11:01:32;;;;;;;0.00;0.00;;;12.80;99.90;;;;;;5091327;28;20036;-82
2022/05/30 11:04:21;;;;;;;0.00;0.00;;;13.00;99.90;;;;;;5090852;28;20044;-85
2022/05/30 11:06:50;;;;;;;0.00;0.00;;;13.10;99.90;;;;;;5091533;28;20037;-85
2022/05/30 11:09:30;;;;;;;0.10;0.10;;;13.10;99.90;;;;;;5078866;28;20817;-83
2022/05/30 11:12:06;;;;;;;0.00;0.00;;;13.20;99.90;;;;;;5074390;28;20036;-85
2022/05/30 11:14:45;;;;;;;0.10;0.10;;;13.40;99.90;;;;;;5091158;28;20036;-83
2022/05/30 11:17:42;;;;;;;0.10;0.10;;;13.50;99.90;;;;;;5074050;28;20036;-85
2022/05/30 11:20:23;;;;;;;0.10;0.10;;;13.60;99.90;;;;;;5070526;28;20053;-86
2022/05/30 11:22:53;;;;;;;0.00;0.00;;;13.70;99.90;;;;;;5078187;28;20032;-85
2022/05/30 11:25:30;;;;;;;0.00;0.00;;;13.80;99.90;;;;;;5087616;28;20112;-83
2022/05/30 11:28:39;;;;;;;0.20;0.10;;;13.80;99.90;;;;;;5089107;28;20032;-83
2022/05/30 11:31:27;;;;;;;0.03;0.03;;;13.70;99.90;;;;;;5088123;28;20036;-86
2022/05/30 11:34:06;;;;;;;0.10;0.10;;;13.60;99.90;;;;;;5079479;28;20036;-85
2022/05/30 11:37:02;;;;;;;0.00;0.00;;;13.50;99.90;;;;;;5078783;28;20036;-83
2022/05/30 11:39:44;;;;;;;0.00;0.00;;;13.50;99.90;;;;;;5070931;28;20135;-83
2022/05/30 11:42:12;;;;;;;0.10;0.10;;;13.30;99.90;;;;;;5072036;28;20097;-85
2022/05/30 11:44:55;;;;;;;0.00;0.00;;;13.30;99.90;;;;;;5073771;28;20045;-86
2022/05/30 11:47:47;;;;;;;0.00;0.00;;;13.30;99.90;;;;;;5063052;28;20444;-85
2022/05/30 11:50:35;;;;;;;0.08;0.00;;;13.30;99.90;;;;;;5061344;28;20074;-85
2022/05/30 11:53:40;;;;;;;0.00;0.00;;;13.30;99.90;;;;;;5090515;28;20058;-83
2022/05/30 11:56:21;;;;;;;0.10;0.10;;;13.30;99.90;;;;;;5062223;28;20048;-85
2022/05/30 11:59:16;;;;;;;0.00;0.00;;;13.10;99.90;;;;;;5074413;28;20043;-83
2022/05/30 12:01:49;;;;;;;0.10;0.10;;;13.20;99.90;;;;;;5070785;28;20087;-86
2022/05/30 12:04:38;;;;;;;0.00;0.00;;;13.10;99.90;;;;;;5072301;28;20043;-86
2022/05/30 12:07:20;;;;;;;0.00;0.00;;;13.10;99.90;;;;;;5090562;28;20082;-83
2022/05/30 12:09:52;;;;;;;0.05;0.05;;;13.10;99.90;;;;;;5090481;28;20524;-85
2022/05/30 12:12:28;;;;;;;0.00;0.00;;;13.00;99.90;;;;;;5071350;28;20083;-86
2022/05/30 12:15:16;;;;;;;0.10;0.10;;;12.90;99.90;;;;;;5096512;28;20051;-82
2022/05/30 12:24:21;;;;;;;0.00;0.00;;;12.90;99.90;;;;;;5106553;28;20049;-86
2022/05/30 12:26:54;;;;;;;0.00;0.00;;;12.80;99.90;;;;;;5081995;28;20044;-83
2022/05/30 12:29:39;;;;;;;0.10;0.10;;;12.80;99.90;;;;;;5067929;28;20032;-85
2022/05/30 12:32:16;;;;;;;0.20;0.13;;;12.70;99.90;;;;;;5096730;28;20037;-86
2022/05/30 12:35:03;;;;;;;0.00;0.00;;;12.50;99.90;;;;;;5063490;28;20072;-84
2022/05/30 12:37:52;;;;;;;0.10;0.10;;;12.40;99.90;;;;;;5066536;28;20444;-82
2022/05/30 12:40:28;;;;;;;0.00;0.00;;;12.30;99.90;;;;;;5071514;28;20445;-83
2022/05/30 12:43:23;;;;;;;0.10;0.10;;;12.30;99.90;;;;;;5071644;28;20072;-83
2022/05/30 12:45:56;;;;;;;0.00;0.00;;;12.20;99.90;;;;;;5089572;28;20036;-85
2022/05/30 12:48:26;;;;;;;0.00;0.00;;;12.20;99.90;;;;;;5073017;28;20040;-85
2022/05/30 12:50:52;;;;;;;0.00;0.00;;;12.20;99.90;;;;;;5073184;28;20071;-85
2022/05/30 12:53:22;;;;;;;0.00;0.00;;;12.20;99.90;;;;;;5084522;28;20901;-83
2022/05/30 12:55:51;;;;;;;0.00;0.00;;;12.20;99.90;;;;;;5057512;28;20039;-82
2022/05/30 12:58:33;;;;;;;0.00;0.00;;;12.30;99.90;;;;;;5103552;28;20037;-85
2022/05/30 13:01:25;;;;;;;0.00;0.00;;;12.30;99.90;;;;;;5057058;28;20044;-84
2022/05/30 13:04:26;;;;;;;0.00;0.00;;;12.20;99.90;;;;;;5073082;28;20127;-85
2022/05/30 13:07:02;;;;;;;0.00;0.00;;;12.20;99.90;;;;;;5078050;28;20051;-84
2022/05/30 13:09:41;;;;;;;0.10;0.10;;;12.10;99.90;;;;;;5072923;28;20076;-81
2022/05/30 13:12:22;;;;;;;0.00;0.00;;;12.10;99.90;;;;;;5087301;28;20082;-84
2022/05/30 13:15:13;;;;;;;0.00;0.00;;;12.00;99.90;;;;;;5089150;28;20115;-81
2022/05/30 13:17:55;;;;;;;0.05;0.05;;;11.90;99.90;;;;;;5069069;28;20075;-81
2022/05/30 13:20:37;;;;;;;0.10;0.10;;;11.90;99.90;;;;;;5071837;28;20409;-81
2022/05/30 13:23:05;;;;;;;0.00;0.00;;;12.00;99.90;;;;;;5086845;28;20036;-83
2022/05/30 13:25:32;;;;;;;0.00;0.00;;;12.10;99.90;;;;;;5072249;28;20036;-84
2022/05/30 13:28:16;;;;;;;0.00;0.00;;;12.20;99.90;;;;;;5072611;28;20036;-83
2022/05/30 13:30:43;;;;;;;0.00;0.00;;;12.40;99.90;;;;;;5072107;28;20063;-84
2022/05/30 13:33:31;;;;;;;0.10;0.10;;;12.60;99.90;;;;;;5083963;28;20032;-84
2022/05/30 13:36:04;;;;;;;0.00;0.00;;;12.50;99.90;;;;;;5058645;28;20497;-84
2022/05/30 13:38:42;;;;;;;0.10;0.10;;;12.60;99.90;;;;;;5072187;28;20039;-84
2022/05/30 13:41:34;;;;;;;0.05;0.05;;;12.60;99.90;;;;;;5055222;28;20052;-84
2022/05/30 13:44:00;;;;;;;0.00;0.00;;;12.80;99.90;;;;;;5072051;28;20036;-85
2022/05/30 13:46:37;;;;;;;0.00;0.00;;;12.80;99.90;;;;;;5083026;28;20043;-85